sensor_id;sensor_type;location;lat;lon;timestamp;pressure;altitude;pressure_sealevel;temperature;humidity
57606;BME280;43430;48.204;11.556;2023-04-15T00:08:26;95058.88;;;4.29;100.00
57606;BME280;43430;48.204;11.556;2023-04-15T00:21:16;95055.31;;;4.24;100.00
57606;BME280;43430;48.204;11.556;2023-04-15T00:23:44;95051.28;;;4.28;100.00
57606;BME280;43430;48.204;11.556;2023-04-15T00:26:42;95049.28;;;4.23;100.00
57606;BME280;43430;48.204;11.556;2023-04-15T00:30:27;95044.88;;;4.24;100.00
57606;BME280;43430;48.204;11.556;2023-04-15T00:33:00;95040.63;;;4.23;100.00
57606;BME280;43430;48.204;11.556;2023-04-15T00:35:44;95038.84;;;4.23;100.00
57606;BME280;43430;48.204;11.556;2023-04-15T00:38:49;95038.47;;;4.20;100.00
57606;BME280;43430;48.204;11.556;2023-04-15T00:41:29;95035.22;;;4.24;100.00
57606;BME280;43430;48.204;11.556;2023-04-15T00:44:26;95027.41;;;4.24;100.00
57606;BME280;43430;48.204;11.556;2023-04-15T00:46:52;95030.59;;;4.26;100.00
57606;BME280;43430;48.204;11.556;2023-04-15T00:49:18;95027.78;;;4.35;100.00
57606;BME280;43430;48.204;11.556;2023-04-15T00:51:44;95018.56;;;4.25;100.00
57606;BME280;43430;48.204;11.556;2023-04-15T00:54:16;95024.00;;;4.24;100.00
57606;BME280;43430;48.204;11.556;2023-04-15T00:56:50;95021.78;;;4.27;100.00
57606;BME280;43430;48.204;11.556;2023-04-15T00:59:16;95025.19;;;4.28;100.00
57606;BME280;43430;48.204;11.556;2023-04-15T01:01:45;95030.59;;;4.26;100.00
57606;BME280;43430;48.204;11.556;2023-04-15T01:04:16;95030.00;;;4.31;100.00
57606;BME280;43430;48.204;11.556;2023-04-15T01:06:51;95027.94;;;4.40;100.00
57606;BME280;43430;48.204;11.556;2023-04-15T01:09:19;95029.38;;;4.36;100.00
57606;BME280;43430;48.204;11.556;2023-04-15T01:11:53;95028.34;;;4.37;100.00
57606;BME280;43430;48.204;11.556;2023-04-15T01:14:22;95026.97;;;4.34;100.00
57606;BME280;43430;48.204;11.556;2023-04-15T01:16:48;95026.75;;;4.36;100.00
57606;BME280;43430;48.204;11.556;2023-04-15T01:19:23;95022.75;;;4.33;100.00
57606;BME280;43430;48.204;11.556;2023-04-15T01:21:53;95024.56;;;4.33;100.00
57606;BME280;43430;48.204;11.556;2023-04-15T01:24:24;95013.53;;;4.31;100.00
57606;BME280;43430;48.204;11.556;2023-04-15T01:26:58;95014.31;;;4.38;100.00
57606;BME280;43430;48.204;11.556;2023-04-15T01:29:31;95017.50;;;4.40;100.00
57606;BME280;43430;48.204;11.556;2023-04-15T01:31:57;95025.94;;;4.42;100.00
57606;BME280;43430;48.204;11.556;2023-04-15T01:34:22;95028.31;;;4.43;100.00
57606;BME280;43430;48.204;11.556;2023-04-15T01:36:51;95029.19;;;4.37;100.00
57606;BME280;43430;48.204;11.556;2023-04-15T01:39:28;95028.16;;;4.38;100.00
57606;BME280;43430;48.204;11.556;2023-04-15T01:41:59;95023.53;;;4.40;100.00
57606;BME280;43430;48.204;11.556;2023-04-15T01:47:38;95025.34;;;4.40;100.00
57606;BME280;43430;48.204;11.556;2023-04-15T01:53:34;95029.19;;;4.37;100.00
57606;BME280;43430;48.204;11.556;2023-04-15T01:57:14;95019.94;;;4.35;100.00
57606;BME280;43430;48.204;11.556;2023-04-15T01:59:22;95025.16;;;4.35;100.00
57606;BME280;43430;48.204;11.556;2023-04-15T02:01:47;95023.56;;;4.34;100.00
57606;BME280;43430;48.204;11.556;2023-04-15T02:04:33;95024.38;;;4.34;100.00
57606;BME280;43430;48.204;11.556;2023-04-15T02:07:32;95016.31;;;4.36;100.00
57606;BME280;43430;48.204;11.556;2023-04-15T02:10:39;95024.75;;;4.38;100.00
57606;BME280;43430;48.204;11.556;2023-04-15T02:17:07;95012.72;;;4.30;100.00
57606;BME280;43430;48.204;11.556;2023-04-15T02:23:48;95026.78;;;4.22;100.00
57606;BME280;43430;48.204;11.556;2023-04-15T02:26:38;95023.19;;;4.23;100.00
57606;BME280;43430;48.204;11.556;2023-04-15T02:29:12;95021.16;;;4.25;100.00
57606;BME280;43430;48.204;11.556;2023-04-15T02:32:08;95020.38;;;4.25;100.00
57606;BME280;43430;48.204;11.556;2023-04-15T02:48:08;95016.38;;;4.16;100.00
57606;BME280;43430;48.204;11.556;2023-04-15T02:54:50;95012.78;;;4.10;100.00
57606;BME280;43430;48.204;11.556;2023-04-15T03:01:22;95015.97;;;4.12;100.00
57606;BME280;43430;48.204;11.556;2023-04-15T03:07:43;95008.34;;;4.17;100.00
57606;BME280;43430;48.204;11.556;2023-04-15T03:13:40;95027.19;;;4.19;100.00
57606;BME280;43430;48.204;11.556;2023-04-15T03:16:11;95026.59;;;4.24;100.00
57606;BME280;43430;48.204;11.556;2023-04-15T03:22:23;95034.41;;;4.31;100.00
57606;BME280;43430;48.204;11.556;2023-04-15T03:25:11;95031.81;;;4.24;100.00
57606;BME280;43430;48.204;11.556;2023-04-15T03:31:11;95027.03;;;4.14;100.00
57606;BME280;43430;48.204;11.556;2023-04-15T03:33:37;95035.44;;;4.16;100.00
57606;BME280;43430;48.204;11.556;2023-04-15T03:36:13;95032.25;;;4.14;100.00
57606;BME280;43430;48.204;11.556;2023-04-15T03:38:48;95033.25;;;4.20;100.00
57606;BME280;43430;48.204;11.556;2023-04-15T03:41:35;95032.38;;;4.33;100.00
57606;BME280;43430;48.204;11.556;2023-04-15T03:44:01;95028.34;;;4.37;100.00
57606;BME280;43430;48.204;11.556;2023-04-15T03:46:28;95031.97;;;4.36;100.00
57606;BME280;43430;48.204;11.556;2023-04-15T03:49:31;95029.00;;;4.25;100.00
57606;BME280;43430;48.204;11.556;2023-04-15T03:58:21;95031.41;;;4.27;100.00
57606;BME280;43430;48.204;11.556;2023-04-15T04:00:49;95032.63;;;4.24;100.00
57606;BME280;43430;48.204;11.556;2023-04-15T04:03:33;95030.41;;;4.28;100.00
57606;BME280;43430;48.204;11.556;2023-04-15T04:06:04;95033.00;;;4.28;100.00
57606;BME280;43430;48.204;11.556;2023-04-15T04:08:34;95028.19;;;4.25;100.00
57606;BME280;43430;48.204;11.556;2023-04-15T04:11:00;95030.41;;;4.21;100.00
57606;BME280;43430;48.204;11.556;2023-04-15T04:13:31;95029.00;;;4.19;100.00
57606;BME280;43430;48.204;11.556;2023-04-15T04:15:59;95028.22;;;4.18;100.00
57606;BME280;43430;48.204;11.556;2023-04-15T04:18:28;95027.19;;;4.19;100.00
57606;BME280;43430;48.204;11.556;2023-04-15T04:21:19;95031.03;;;4.17;100.00
57606;BME280;43430;48.204;11.556;2023-04-15T04:23:59;95016.75;;;4.19;100.00
57606;BME280;43430;48.204;11.556;2023-04-15T04:26:27;95017.22;;;4.10;100.00
57606;BME280;43430;48.204;11.556;2023-04-15T04:28:58;95027.66;;;4.10;100.00
57606;BME280;43430;48.204;11.556;2023-04-15T04:31:27;95024.22;;;4.09;100.00
57606;BME280;43430;48.204;11.556;2023-04-15T04:34:05;95029.63;;;4.14;100.00
57606;BME280;43430;48.204;11.556;2023-04-15T04:36:30;95028.81;;;4.20;100.00
57606;BME280;43430;48.204;11.556;2023-04-15T04:38:56;95028.41;;;4.23;100.00
57606;BME280;43430;48.204;11.556;2023-04-15T04:41:45;95028.03;;;4.13;100.00
57606;BME280;43430;48.204;11.556;2023-04-15T04:44:11;95028.44;;;4.17;100.00
57606;BME280;43430;48.204;11.556;2023-04-15T04:46:47;95027.66;;;4.10;100.00
57606;BME280;43430;48.204;11.556;2023-04-15T04:49:12;95034.66;;;4.09;100.00
57606;BME280;43430;48.204;11.556;2023-04-15T04:51:40;95028.84;;;4.07;100.00
57606;BME280;43430;48.204;11.556;2023-04-15T04:54:26;95028.22;;;4.12;100.00
57606;BME280;43430;48.204;11.556;2023-04-15T04:57:01;95025.00;;;4.16;100.00
57606;BME280;43430;48.204;11.556;2023-04-15T04:59:35;95023.63;;;4.07;100.00
57606;BME280;43430;48.204;11.556;2023-04-15T05:02:01;95021.81;;;4.08;100.00
57606;BME280;43430;48.204;11.556;2023-04-15T05:04:30;95024.22;;;4.02;100.00
57606;BME280;43430;48.204;11.556;2023-04-15T05:06:56;95021.19;;;4.12;100.00
57606;BME280;43430;48.204;11.556;2023-04-15T05:09:26;95017.22;;;4.10;100.00
57606;BME280;43430;48.204;11.556;2023-04-15T05:11:57;95019.44;;;4.06;100.00
57606;BME280;43430;48.204;11.556;2023-04-15T05:14:23;95018.00;;;4.10;100.00
57606;BME280;43430;48.204;11.556;2023-04-15T05:16:49;95010.56;;;4.14;100.00
57606;BME280;43430;48.204;11.556;2023-04-15T05:19:16;95016.56;;;4.27;100.00
57606;BME280;43430;48.204;11.556;2023-04-15T05:21:42;95011.31;;;4.34;100.00
57606;BME280;43430;48.204;11.556;2023-04-15T05:24:07;95010.72;;;4.25;100.00
57606;BME280;43430;48.204;11.556;2023-04-15T05:26:33;95010.53;;;4.27;100.00
57606;BME280;43430;48.204;11.556;2023-04-15T05:29:01;95007.72;;;4.22;100.00
57606;BME280;43430;48.204;11.556;2023-04-15T05:31:26;95005.34;;;4.20;100.00
57606;BME280;43430;48.204;11.556;2023-04-15T05:33:51;95008.16;;;4.12;100.00
57606;BME280;43430;48.204;11.556;2023-04-15T05:36:19;95002.91;;;4.19;100.00
57606;BME280;43430;48.204;11.556;2023-04-15T05:38:45;95007.94;;;4.20;100.00
57606;BME280;43430;48.204;11.556;2023-04-15T05:41:10;94995.88;;;4.19;100.00
57606;BME280;43430;48.204;11.556;2023-04-15T05:43:36;94981.25;;;4.18;100.00
57606;BME280;43430;48.204;11.556;2023-04-15T05:46:04;94993.09;;;4.21;100.00
57606;BME280;43430;48.204;11.556;2023-04-15T05:48:32;94983.88;;;4.18;100.00
57606;BME280;43430;48.204;11.556;2023-04-15T05:51:06;94990.25;;;4.22;100.00
57606;BME280;43430;48.204;11.556;2023-04-15T05:53:37;94990.66;;;4.19;100.00
57606;BME280;43430;48.204;11.556;2023-04-15T05:56:21;94987.06;;;4.20;100.00
57606;BME280;43430;48.204;11.556;2023-04-15T05:58:47;94988.06;;;4.19;100.00
57606;BME280;43430;48.204;11.556;2023-04-15T06:01:12;94990.25;;;4.22;100.00
57606;BME280;43430;48.204;11.556;2023-04-15T06:03:38;95000.91;;;4.21;100.00
57606;BME280;43430;48.204;11.556;2023-04-15T06:06:08;94991.84;;;4.30;100.00
57606;BME280;43430;48.204;11.556;2023-04-15T06:11:23;94980.56;;;4.36;100.00
57606;BME280;43430;48.204;11.556;2023-04-15T06:13:58;94987.41;;;4.37;100.00
57606;BME280;43430;48.204;11.556;2023-04-15T06:16:24;94992.16;;;4.47;100.00
57606;BME280;43430;48.204;11.556;2023-04-15T06:18:51;94980.94;;;4.46;100.00
57606;BME280;43430;48.204;11.556;2023-04-15T06:21:34;94983.53;;;4.46;100.00
57606;BME280;43430;48.204;11.556;2023-04-15T06:24:00;94978.13;;;4.48;100.00
57606;BME280;43430;48.204;11.556;2023-04-15T06:26:39;94979.88;;;4.54;100.00
57606;BME280;43430;48.204;11.556;2023-04-15T06:29:24;94982.91;;;4.58;100.00
57606;BME280;43430;48.204;11.556;2023-04-15T06:31:55;94979.41;;;4.70;100.00
57606;BME280;43430;48.204;11.556;2023-04-15T06:34:23;94965.94;;;4.73;100.00
57606;BME280;43430;48.204;11.556;2023-04-15T06:36:58;94980.00;;;4.72;100.00
57606;BME280;43430;48.204;11.556;2023-04-15T06:39:50;94972.19;;;4.72;100.00
57606;BME280;43430;48.204;11.556;2023-04-15T06:42:35;94973.09;;;4.85;100.00
57606;BME280;43430;48.204;11.556;2023-04-15T06:45:24;94969.50;;;4.86;100.00
57606;BME280;43430;48.204;11.556;2023-04-15T06:48:04;94975.13;;;4.83;100.00
57606;BME280;43430;48.204;11.556;2023-04-15T06:50:36;94975.25;;;4.94;100.00
57606;BME280;43430;48.204;11.556;2023-04-15T06:53:01;94977.19;;;5.06;100.00
57606;BME280;43430;48.204;11.556;2023-04-15T06:55:30;94973.53;;;5.13;100.00
57606;BME280;43430;48.204;11.556;2023-04-15T06:58:03;94973.06;;;5.23;100.00
57606;BME280;43430;48.204;11.556;2023-04-15T07:00:29;94973.25;;;5.21;100.00
57606;BME280;43430;48.204;11.556;2023-04-15T07:02:54;94967.59;;;5.24;100.00
57606;BME280;43430;48.204;11.556;2023-04-15T07:05:29;94965.25;;;5.41;100.00
57606;BME280;43430;48.204;11.556;2023-04-15T07:08:05;94957.38;;;5.48;100.00
57606;BME280;43430;48.204;11.556;2023-04-15T07:10:50;94965.09;;;5.61;100.00
57606;BME280;43430;48.204;11.556;2023-04-15T07:13:19;94958.56;;;5.70;100.00
57606;BME280;43430;48.204;11.556;2023-04-15T07:16:07;94956.91;;;5.76;100.00
57606;BME280;43430;48.204;11.556;2023-04-15T07:21:51;94955.69;;;5.79;100.00
57606;BME280;43430;48.204;11.556;2023-04-15T07:24:19;94949.84;;;5.77;100.00
57606;BME280;43430;48.204;11.556;2023-04-15T07:30:08;94963.13;;;6.00;100.00
57606;BME280;43430;48.204;11.556;2023-04-15T07:32:36;94963.00;;;6.13;100.00
57606;BME280;43430;48.204;11.556;2023-04-15T07:35:36;94960.56;;;6.12;100.00
57606;BME280;43430;48.204;11.556;2023-04-15T07:38:11;94957.88;;;6.18;100.00
57606;BME280;43430;48.204;11.556;2023-04-15T07:40:58;94947.06;;;6.33;100.00
57606;BME280;43430;48.204;11.556;2023-04-15T07:43:58;94949.50;;;6.47;100.00
57606;BME280;43430;48.204;11.556;2023-04-15T07:46:59;94952.34;;;6.75;100.00
57606;BME280;43430;48.204;11.556;2023-04-15T07:50:12;94945.63;;;6.68;100.00
57606;BME280;43430;48.204;11.556;2023-04-15T07:52:50;94947.22;;;6.80;100.00
57606;BME280;43430;48.204;11.556;2023-04-15T07:55:47;94943.97;;;6.97;100.00
57606;BME280;43430;48.204;11.556;2023-04-15T07:58:55;94944.13;;;7.13;100.00
57606;BME280;43430;48.204;11.556;2023-04-15T08:02:17;94938.06;;;7.01;100.00
57606;BME280;43430;48.204;11.556;2023-04-15T08:04:48;94937.50;;;7.11;100.00
57606;BME280;43430;48.204;11.556;2023-04-15T08:07:50;94936.09;;;7.50;100.00
57606;BME280;43430;48.204;11.556;2023-04-15T08:10:19;94927.53;;;7.67;100.00
57606;BME280;43430;48.204;11.556;2023-04-15T08:12:56;94931.28;;;7.71;100.00
57606;BME280;43430;48.204;11.556;2023-04-15T08:21:16;94924.56;;;7.51;100.00
57606;BME280;43430;48.204;11.556;2023-04-15T08:30:02;94915.88;;;7.86;100.00
57606;BME280;43430;48.204;11.556;2023-04-15T08:32:53;94917.78;;;7.91;100.00
57606;BME280;43430;48.204;11.556;2023-04-15T08:38:57;94909.25;;;7.95;100.00
57606;BME280;43430;48.204;11.556;2023-04-15T08:44:55;94917.72;;;7.50;100.00
57606;BME280;43430;48.204;11.556;2023-04-15T08:51:39;94928.22;;;7.50;100.00
57606;BME280;43430;48.204;11.556;2023-04-15T08:54:34;94929.59;;;7.65;100.00
57606;BME280;43430;48.204;11.556;2023-04-15T09:00:45;94930.69;;;7.80;100.00
57606;BME280;43430;48.204;11.556;2023-04-15T09:03:50;94934.34;;;7.91;100.00
57606;BME280;43430;48.204;11.556;2023-04-15T09:06:46;94932.28;;;7.93;100.00
57606;BME280;43430;48.204;11.556;2023-04-15T09:09:37;94931.84;;;7.96;100.00
57606;BME280;43430;48.204;11.556;2023-04-15T09:12:37;94934.91;;;7.93;100.00
57606;BME280;43430;48.204;11.556;2023-04-15T09:15:15;94945.59;;;8.15;100.00
57606;BME280;43430;48.204;11.556;2023-04-15T09:18:02;94944.31;;;8.41;100.00
57606;BME280;43430;48.204;11.556;2023-04-15T09:20:55;94952.00;;;8.19;100.00
57606;BME280;43430;48.204;11.556;2023-04-15T09:23:58;94947.81;;;8.06;100.00
57606;BME280;43430;48.204;11.556;2023-04-15T09:26:45;94945.28;;;8.12;100.00
57606;BME280;43430;48.204;11.556;2023-04-15T09:32:40;94951.91;;;8.02;100.00
57606;BME280;43430;48.204;11.556;2023-04-15T09:39:14;94950.88;;;8.03;100.00
57606;BME280;43430;48.204;11.556;2023-04-15T09:42:05;94951.38;;;7.65;100.00
57606;BME280;43430;48.204;11.556;2023-04-15T09:53:53;94964.47;;;8.00;100.00
57606;BME280;43430;48.204;11.556;2023-04-15T09:56:21;94959.13;;;7.72;100.00
57606;BME280;43430;48.204;11.556;2023-04-15T10:02:40;94963.69;;;7.65;100.00
57606;BME280;43430;48.204;11.556;2023-04-15T10:05:31;94959.13;;;7.72;100.00
57606;BME280;43430;48.204;11.556;2023-04-15T10:08:11;94961.53;;;7.85;100.00
57606;BME280;43430;48.204;11.556;2023-04-15T10:10:57;94958.19;;;8.01;100.00
57606;BME280;43430;48.204;11.556;2023-04-15T10:13:45;94958.53;;;7.93;100.00
57606;BME280;43430;48.204;11.556;2023-04-15T10:16:28;94957.50;;;8.06;100.00
57606;BME280;43430;48.204;11.556;2023-04-15T10:19:13;94954.75;;;8.01;100.00
57606;BME280;43430;48.204;11.556;2023-04-15T10:22:17;94957.53;;;7.82;100.00
57606;BME280;43430;48.204;11.556;2023-04-15T10:25:25;94966.41;;;7.93;100.00
57606;BME280;43430;48.204;11.556;2023-04-15T10:27:50;94963.13;;;7.86;100.00
57606;BME280;43430;48.204;11.556;2023-04-15T10:30:22;94954.19;;;7.87;100.00
57606;BME280;43430;48.204;11.556;2023-04-15T10:33:30;94961.97;;;8.05;100.00
57606;BME280;43430;48.204;11.556;2023-04-15T10:42:22;94972.81;;;8.09;100.00
57606;BME280;43430;48.204;11.556;2023-04-15T10:45:15;94971.97;;;8.08;100.00
57606;BME280;43430;48.204;11.556;2023-04-15T10:48:03;94971.53;;;8.23;100.00
57606;BME280;43430;48.204;11.556;2023-04-15T10:50:33;94975.75;;;8.24;100.00
57606;BME280;43430;48.204;11.556;2023-04-15T10:53:06;94974.94;;;8.24;100.00
57606;BME280;43430;48.204;11.556;2023-04-15T10:56:00;94971.97;;;8.20;100.00
57606;BME280;43430;48.204;11.556;2023-04-15T10:58:41;94971.41;;;8.18;100.00
57606;BME280;43430;48.204;11.556;2023-04-15T11:08:01;94972.06;;;8.25;100.00
57606;BME280;43430;48.204;11.556;2023-04-15T11:15:54;94968.09;;;8.23;100.00
57606;BME280;43430;48.204;11.556;2023-04-15T11:18:54;94966.69;;;8.32;100.00
57606;BME280;43430;48.204;11.556;2023-04-15T11:21:26;94970.47;;;8.24;100.00
57606;BME280;43430;48.204;11.556;2023-04-15T11:23:56;94972.97;;;8.31;100.00
57606;BME280;43430;48.204;11.556;2023-04-15T11:29:19;94974.59;;;8.20;100.00
57606;BME280;43430;48.204;11.556;2023-04-15T11:32:08;94978.47;;;8.18;100.00
57606;BME280;43430;48.204;11.556;2023-04-15T11:34:50;94977.44;;;8.30;100.00
57606;BME280;43430;48.204;11.556;2023-04-15T11:37:35;94979.63;;;8.22;100.00
57606;BME280;43430;48.204;11.556;2023-04-15T11:40:55;94975.31;;;8.16;100.00
57606;BME280;43430;48.204;11.556;2023-04-15T11:43:22;94980.78;;;8.26;100.00
57606;BME280;43430;48.204;11.556;2023-04-15T11:46:15;94987.50;;;8.22;100.00
57606;BME280;43430;48.204;11.556;2023-04-15T11:48:51;94983.75;;;8.29;100.00
57606;BME280;43430;48.204;11.556;2023-04-15T11:51:40;94985.44;;;8.24;100.00
57606;BME280;43430;48.204;11.556;2023-04-15T11:54:26;94983.41;;;8.26;100.00
57606;BME280;43430;48.204;11.556;2023-04-15T11:56:59;94988.78;;;8.19;100.00
57606;BME280;43430;48.204;11.556;2023-04-15T11:59:52;94983.84;;;8.23;100.00
57606;BME280;43430;48.204;11.556;2023-04-15T12:09:20;94989.09;;;8.23;100.00
57606;BME280;43430;48.204;11.556;2023-04-15T12:11:56;94991.47;;;8.36;100.00
57606;BME280;43430;48.204;11.556;2023-04-15T12:14:42;94994.81;;;8.20;100.00
57606;BME280;43430;48.204;11.556;2023-04-15T12:17:12;94993.28;;;8.36;100.00
57606;BME280;43430;48.204;11.556;2023-04-15T12:20:00;94996.41;;;8.44;100.00
57606;BME280;43430;48.204;11.556;2023-04-15T12:22:36;94997.44;;;8.43;100.00
57606;BME280;43430;48.204;11.556;2023-04-15T12:25:02;94991.47;;;8.48;100.00
57606;BME280;43430;48.204;11.556;2023-04-15T12:27:33;95001.19;;;8.47;100.00
57606;BME280;43430;48.204;11.556;2023-04-15T12:30:05;94995.69;;;8.49;100.00
57606;BME280;43430;48.204;11.556;2023-04-15T12:32:37;94995.38;;;8.45;100.00
57606;BME280;43430;48.204;11.556;2023-04-15T12:35:45;95002.91;;;8.53;100.00
57606;BME280;43430;48.204;11.556;2023-04-15T12:38:11;95005.53;;;8.53;100.00
57606;BME280;43430;48.204;11.556;2023-04-15T12:41:05;95006.47;;;8.24;100.00
57606;BME280;43430;48.204;11.556;2023-04-15T12:43:33;95011.13;;;8.22;100.00
57606;BME280;43430;48.204;11.556;2023-04-15T12:46:28;95015.03;;;8.19;100.00
57606;BME280;43430;48.204;11.556;2023-04-15T12:49:26;95019.13;;;8.27;100.00
57606;BME280;43430;48.204;11.556;2023-04-15T12:52:38;95032.84;;;8.17;100.00
57606;BME280;43430;48.204;11.556;2023-04-15T12:55:25;95028.50;;;8.23;100.00
57606;BME280;43430;48.204;11.556;2023-04-15T12:58:23;95041.03;;;7.97;100.00
57606;BME280;43430;48.204;11.556;2023-04-15T13:00:51;95040.13;;;8.15;100.00
57606;BME280;43430;48.204;11.556;2023-04-15T13:06:26;95042.53;;;8.05;100.00
57606;BME280;43430;48.204;11.556;2023-04-15T13:09:01;95038.19;;;8.11;100.00
57606;BME280;43430;48.204;11.556;2023-04-15T13:11:33;95046.31;;;8.09;100.00
57606;BME280;43430;48.204;11.556;2023-04-15T13:14:09;95048.59;;;8.05;100.00
57606;BME280;43430;48.204;11.556;2023-04-15T13:17:10;95048.47;;;7.89;100.00
57606;BME280;43430;48.204;11.556;2023-04-15T13:19:59;95058.53;;;8.03;100.00
57606;BME280;43430;48.204;11.556;2023-04-15T13:22:33;95060.56;;;8.01;100.00
57606;BME280;43430;48.204;11.556;2023-04-15T13:25:05;95059.34;;;8.16;100.00
57606;BME280;43430;48.204;11.556;2023-04-15T13:27:58;95059.09;;;8.17;100.00
57606;BME280;43430;48.204;11.556;2023-04-15T13:30:31;95069.72;;;8.11;100.00
57606;BME280;43430;48.204;11.556;2023-04-15T13:33:12;95073.38;;;8.09;100.00
57606;BME280;43430;48.204;11.556;2023-04-15T13:35:43;95084.22;;;8.13;100.00
57606;BME280;43430;48.204;11.556;2023-04-15T13:38:29;95076.00;;;8.09;100.00
57606;BME280;43430;48.204;11.556;2023-04-15T13:43:52;95088.41;;;7.91;100.00
57606;BME280;43430;48.204;11.556;2023-04-15T13:46:26;95087.59;;;7.90;100.00
57606;BME280;43430;48.204;11.556;2023-04-15T13:49:09;95093.66;;;7.79;100.00
57606;BME280;43430;48.204;11.556;2023-04-15T13:54:52;95108.41;;;7.92;100.00
57606;BME280;43430;48.204;11.556;2023-04-15T13:57:28;95108.50;;;7.85;100.00
57606;BME280;43430;48.204;11.556;2023-04-15T14:02:59;95105.84;;;7.73;100.00
57606;BME280;43430;48.204;11.556;2023-04-15T14:05:30;95107.50;;;7.56;100.00
57606;BME280;43430;48.204;11.556;2023-04-15T14:08:26;95108.19;;;7.63;100.00
57606;BME280;43430;48.204;11.556;2023-04-15T14:11:05;95103.91;;;7.69;100.00
57606;BME280;43430;48.204;11.556;2023-04-15T14:13:53;95111.44;;;7.77;100.00
57606;BME280;43430;48.204;11.556;2023-04-15T14:19:12;95118.94;;;7.61;100.00
57606;BME280;43430;48.204;11.556;2023-04-15T14:21:49;95128.53;;;7.68;100.00
57606;BME280;43430;48.204;11.556;2023-04-15T14:24:25;95133.00;;;7.79;100.00
57606;BME280;43430;48.204;11.556;2023-04-15T14:26:56;95136.88;;;7.76;100.00
57606;BME280;43430;48.204;11.556;2023-04-15T14:29:30;95138.13;;;7.74;100.00
57606;BME280;43430;48.204;11.556;2023-04-15T14:32:19;95146.09;;;7.67;100.00
57606;BME280;43430;48.204;11.556;2023-04-15T14:35:04;95151.22;;;7.62;100.00
57606;BME280;43430;48.204;11.556;2023-04-15T14:37:39;95153.03;;;7.61;100.00
57606;BME280;43430;48.204;11.556;2023-04-15T14:40:14;95147.19;;;7.59;100.00
57606;BME280;43430;48.204;11.556;2023-04-15T14:42:42;95157.94;;;7.58;100.00
57606;BME280;43430;48.204;11.556;2023-04-15T14:45:38;95161.09;;;7.48;100.00
57606;BME280;43430;48.204;11.556;2023-04-15T14:48:06;95170.38;;;7.63;100.00
57606;BME280;43430;48.204;11.556;2023-04-15T14:50:42;95171.88;;;7.70;100.00
57606;BME280;43430;48.204;11.556;2023-04-15T14:53:11;95182.78;;;7.55;100.00
57606;BME280;43430;48.204;11.556;2023-04-15T14:55:38;95200.31;;;7.25;100.00
57606;BME280;43430;48.204;11.556;2023-04-15T14:58:19;95199.75;;;7.23;100.00
57606;BME280;43430;48.204;11.556;2023-04-15T15:01:05;95216.41;;;7.10;100.00
57606;BME280;43430;48.204;11.556;2023-04-15T15:06:34;95235.31;;;6.75;100.00
57606;BME280;43430;48.204;11.556;2023-04-15T15:09:02;95248.47;;;6.87;100.00
57606;BME280;43430;48.204;11.556;2023-04-15T15:11:27;95245.41;;;6.72;100.00
57606;BME280;43430;48.204;11.556;2023-04-15T15:14:19;95253.53;;;6.63;100.00
57606;BME280;43430;48.204;11.556;2023-04-15T15:16:42;95260.44;;;6.58;100.00
57606;BME280;43430;48.204;11.556;2023-04-15T15:22:06;95277.75;;;6.34;100.00
57606;BME280;43430;48.204;11.556;2023-04-15T15:24:38;95283.41;;;6.31;100.00
57606;BME280;43430;48.204;11.556;2023-04-15T15:27:05;95287.94;;;6.42;100.00
57606;BME280;43430;48.204;11.556;2023-04-15T15:29:34;95292.75;;;6.45;100.00
57606;BME280;43430;48.204;11.556;2023-04-15T15:32:08;95297.81;;;6.40;100.00
57606;BME280;43430;48.204;11.556;2023-04-15T15:37:28;95303.06;;;6.08;100.00
57606;BME280;43430;48.204;11.556;2023-04-15T15:40:10;95309.56;;;5.99;100.00
57606;BME280;43430;48.204;11.556;2023-04-15T15:45:59;95329.88;;;5.90;100.00
57606;BME280;43430;48.204;11.556;2023-04-15T15:48:53;95333.31;;;5.91;100.00
57606;BME280;43430;48.204;11.556;2023-04-15T15:51:39;95337.13;;;5.95;100.00
57606;BME280;43430;48.204;11.556;2023-04-15T16:01:04;95349.38;;;6.01;100.00
57606;BME280;43430;48.204;11.556;2023-04-15T16:03:47;95353.63;;;6.02;100.00
57606;BME280;43430;48.204;11.556;2023-04-15T16:06:49;95354.25;;;5.98;100.00
57606;BME280;43430;48.204;11.556;2023-04-15T16:12:05;95369.09;;;6.10;100.00
57606;BME280;43430;48.204;11.556;2023-04-15T16:15:21;95363.50;;;6.00;100.00
57606;BME280;43430;48.204;11.556;2023-04-15T16:17:48;95366.75;;;5.96;100.00
57606;BME280;43430;48.204;11.556;2023-04-15T16:20:22;95368.13;;;5.98;100.00
57606;BME280;43430;48.204;11.556;2023-04-15T16:22:58;95371.34;;;6.00;100.00
57606;BME280;43430;48.204;11.556;2023-04-15T16:25:43;95380.38;;;6.04;100.00
57606;BME280;43430;48.204;11.556;2023-04-15T16:28:18;95373.34;;;5.98;100.00
57606;BME280;43430;48.204;11.556;2023-04-15T16:30:53;95376.38;;;5.95;100.00
57606;BME280;43430;48.204;11.556;2023-04-15T16:33:30;95380.00;;;6.01;100.00
57606;BME280;43430;48.204;11.556;2023-04-15T16:36:10;95381.00;;;6.00;100.00
57606;BME280;43430;48.204;11.556;2023-04-15T16:38:45;95392.91;;;5.96;100.00
57606;BME280;43430;48.204;11.556;2023-04-15T16:41:17;95390.47;;;6.01;100.00
57606;BME280;43430;48.204;11.556;2023-04-15T16:43:50;95395.28;;;6.04;100.00
57606;BME280;43430;48.204;11.556;2023-04-15T16:46:31;95389.84;;;5.99;100.00
57606;BME280;43430;48.204;11.556;2023-04-15T16:49:27;95392.06;;;6.02;100.00
57606;BME280;43430;48.204;11.556;2023-04-15T16:52:11;95391.25;;;6.08;100.00
57606;BME280;43430;48.204;11.556;2023-04-15T16:54:56;95399.91;;;6.02;100.00
57606;BME280;43430;48.204;11.556;2023-04-15T16:57:48;95411.00;;;5.90;100.00
57606;BME280;43430;48.204;11.556;2023-04-15T17:03:21;95407.88;;;5.55;100.00
57606;BME280;43430;48.204;11.556;2023-04-15T17:05:50;95409.88;;;5.60;100.00